createdAt,value
2018-11-28T00:00:39.398Z,99.66
2018-11-28T00:01:49.490Z,99.95
2018-11-28T00:02:59.558Z,99.85
2018-11-28T00:04:09.622Z,99.99
2018-11-28T00:05:19.444Z,99.99
2018-11-28T00:06:29.515Z,99.57
2018-11-28T00:07:39.636Z,99.57
2018-11-28T00:08:49.790Z,99.95
2018-11-28T00:09:59.597Z,99.95
2018-11-28T00:11:10.014Z,99.66
2018-11-28T00:12:19.840Z,99.57
2018-11-28T00:13:29.919Z,99.38
2018-11-28T00:14:40.033Z,99.57
2018-11-28T00:15:50.098Z,99.38
2018-11-28T00:17:00.256Z,99.66
2018-11-28T00:18:10.354Z,99.66
2018-11-28T00:19:20.420Z,99.57
2018-11-28T00:20:30.501Z,99.66
2018-11-28T00:21:40.593Z,99.95
2018-11-28T00:22:50.667Z,99.48
2018-11-28T00:24:00.752Z,99.38
2018-11-28T00:25:10.811Z,99.85
2018-11-28T00:26:20.606Z,99.66
2018-11-28T00:27:30.664Z,99.76
2018-11-28T00:28:40.723Z,99.76
2018-11-28T00:29:50.546Z,99.57
2018-11-28T00:31:01.369Z,99.66
2018-11-28T00:32:11.424Z,99.48
2018-11-28T00:33:22.053Z,99.48
2018-11-28T00:34:32.114Z,99.38
2018-11-28T00:35:42.174Z,99.95
2018-11-28T00:36:52.245Z,99.99
2018-11-28T00:38:02.342Z,99.85
2018-11-28T00:39:12.806Z,99.66
2018-11-28T00:40:22.362Z,99.66
2018-11-28T00:41:32.419Z,99.85
2018-11-28T00:42:42.467Z,99.99
2018-11-28T00:43:52.597Z,99.99
2018-11-28T00:45:02.671Z,99.99
2018-11-28T00:46:12.716Z,99.99
2018-11-28T00:47:22.787Z,99.99
2018-11-28T00:48:32.830Z,99.99
2018-11-28T00:49:42.993Z,99.99
2018-11-28T00:50:53.058Z,99.99
2018-11-28T00:52:04.167Z,99.95
2018-11-28T00:53:14.234Z,99.99
2018-11-28T00:54:24.301Z,99.95
2018-11-28T00:55:34.169Z,99.38
2018-11-28T00:56:44.208Z,99.48
2018-11-28T00:57:54.071Z,99.66
2018-11-28T00:59:06.239Z,99.66
2018-11-28T01:00:16.377Z,99.76
2018-11-28T01:01:26.456Z,99.76
2018-11-28T01:02:36.570Z,99.66
2018-11-28T01:03:46.633Z,99.85
2018-11-28T01:04:56.694Z,99.85
2018-11-28T01:06:06.755Z,99.66
2018-11-28T01:07:16.578Z,99.95
2018-11-28T01:08:26.649Z,99.85
2018-11-28T01:09:36.724Z,99.66
2018-11-28T01:10:46.788Z,99.66
2018-11-28T01:11:56.592Z,99.76
2018-11-28T01:13:06.676Z,99.76
2018-11-28T01:14:16.755Z,99.66
2018-11-28T01:15:26.576Z,99.57
2018-11-28T01:16:36.660Z,99.76
2018-11-28T01:17:46.725Z,99.95
2018-11-28T01:18:56.817Z,99.85
2018-11-28T01:20:06.854Z,99.66
2018-11-28T01:21:17.244Z,99.95
2018-11-28T01:22:27.058Z,99.19
2018-11-28T01:23:37.110Z,99.29
2018-11-28T01:24:46.911Z,99.19
2018-11-28T01:25:56.957Z,99.38
2018-11-28T01:27:09.332Z,99.19
2018-11-28T01:28:19.383Z,99.19
2018-11-28T01:29:29.197Z,99.19
2018-11-28T01:30:39.042Z,99.99
2018-11-28T01:31:48.842Z,99.85
2018-11-28T01:32:58.902Z,99.57
2018-11-28T01:34:09.258Z,99.85
2018-11-28T01:35:19.313Z,99.95
2018-11-28T01:36:29.498Z,99.57
2018-11-28T01:37:39.575Z,99.57
2018-11-28T01:38:49.649Z,99.66
2018-11-28T01:40:02.106Z,99.76
2018-11-28T01:41:12.181Z,99.85
2018-11-28T01:42:22.288Z,99.66
2018-11-28T01:43:32.079Z,99.76
2018-11-28T01:44:41.854Z,99.66
2018-11-28T01:45:51.915Z,99.66
2018-11-28T01:47:01.710Z,99.76
2018-11-28T01:48:11.803Z,99.95
2018-11-28T01:49:21.843Z,99.95
2018-11-28T01:50:31.922Z,99.85
2018-11-28T01:51:41.963Z,99.85
2018-11-28T01:52:52.040Z,99.76
2018-11-28T01:54:02.100Z,99.85
2018-11-28T01:55:12.173Z,99.57
2018-11-28T01:56:22.281Z,99.76
2018-11-28T01:57:32.330Z,99.66
2018-11-28T01:58:42.377Z,99.66
2018-11-28T01:59:52.171Z,99.66
2018-11-28T02:01:02.232Z,99.85
2018-11-28T02:02:12.150Z,99.95
2018-11-28T02:03:22.218Z,99.99
2018-11-28T02:04:32.022Z,99.76
2018-11-28T02:05:56.506Z,99.95
2018-11-28T02:07:06.930Z,99.76
2018-11-28T02:08:16.752Z,99.76
2018-11-28T02:09:26.561Z,99.95
2018-11-28T02:10:36.653Z,99.66
2018-11-28T02:11:46.771Z,99.57
2018-11-28T02:12:57.087Z,99.57
2018-11-28T02:14:07.155Z,99.76
2018-11-28T02:15:17.037Z,99.76
2018-11-28T02:16:27.108Z,99.76
2018-11-28T02:17:37.164Z,99.66
2018-11-28T02:18:47.236Z,99.66
2018-11-28T02:19:57.042Z,99.85
2018-11-28T02:21:06.845Z,99.66
2018-11-28T02:22:16.907Z,99.57
2018-11-28T02:23:26.964Z,99.76
2018-11-28T02:24:37.014Z,99.85
2018-11-28T02:25:47.085Z,99.66
2018-11-28T02:26:57.159Z,99.85
2018-11-28T02:28:07.226Z,99.66
2018-11-28T02:29:17.521Z,99.66
2018-11-28T02:30:27.382Z,99.95
2018-11-28T02:31:37.445Z,99.85
2018-11-28T02:32:47.543Z,99.85
2018-11-28T02:33:57.873Z,99.85
2018-11-28T02:35:08.044Z,99.76
2018-11-28T02:36:18.100Z,99.95
2018-11-28T02:37:28.179Z,99.85
2018-11-28T02:38:37.987Z,99.85
2018-11-28T02:39:48.062Z,99.95
2018-11-28T02:40:58.139Z,99.85
2018-11-28T02:42:08.250Z,99.85
2018-11-28T02:43:18.299Z,99.85
2018-11-28T02:44:28.361Z,99.85
2018-11-28T02:45:38.464Z,99.85
2018-11-28T02:46:48.287Z,99.76
2018-11-28T02:47:59.136Z,99.57
2018-11-28T02:49:11.251Z,99.48
2018-11-28T02:50:21.765Z,99.48
2018-11-28T02:51:31.838Z,99.48
2018-11-28T02:52:42.778Z,99.48
2018-11-28T02:53:52.842Z,99.48
2018-11-28T02:55:03.499Z,99.76
2018-11-28T02:56:13.571Z,99.57
2018-11-28T02:57:23.383Z,99.48
2018-11-28T02:58:33.179Z,99.48
2018-11-28T02:59:43.250Z,99.48
2018-11-28T03:00:53.333Z,99.48
2018-11-28T03:02:03.404Z,99.48
2018-11-28T03:03:13.487Z,99.38
2018-11-28T03:35:01.416Z,92.76
2018-11-28T03:36:11.533Z,92.66
2018-11-28T03:37:21.638Z,93.7
2018-11-28T03:38:31.772Z,94.37
2018-11-28T03:39:41.912Z,95.59
2018-11-28T03:40:51.930Z,96.73
2018-11-28T03:42:02.059Z,97.77
2018-11-28T03:43:12.447Z,97.67
2018-11-28T03:44:22.561Z,98.24
2018-11-28T03:45:32.956Z,98.62
2018-11-28T03:46:43.342Z,98.96
2018-11-28T03:47:53.695Z,99.24
2018-11-28T03:49:05.035Z,99.15
2018-11-28T03:50:15.180Z,99.8
2018-11-28T03:51:25.320Z,99.62
2018-11-28T03:52:35.503Z,99.71
2018-11-28T03:53:45.679Z,99.62
2018-11-28T03:54:56.039Z,99.43
2018-11-28T03:56:06.163Z,99.62
2018-11-28T03:57:16.047Z,99.71
2018-11-28T03:58:25.848Z,99.9
2018-11-28T03:59:36.097Z,99.52
2018-11-28T04:00:46.234Z,99.99
2018-11-28T04:01:56.097Z,99.99
2018-11-28T04:03:06.231Z,99.66
2018-11-28T04:04:16.165Z,99.95
2018-11-28T04:05:26.311Z,99.57
2018-11-28T04:06:36.440Z,99.76
2018-11-28T04:07:46.590Z,99.95
2018-11-28T04:08:56.757Z,99.38
2018-11-28T04:10:08.391Z,99.76
2018-11-28T04:11:18.526Z,99.48
2018-11-28T04:12:28.650Z,99.48
2018-11-28T04:13:38.516Z,99.48
2018-11-28T04:14:48.663Z,99.95
2018-11-28T04:15:58.781Z,99.99
2018-11-28T04:17:09.215Z,99.95
2018-11-28T04:18:19.438Z,99.99
2018-11-28T04:19:29.262Z,99.99
2018-11-28T04:20:39.388Z,99.99
2018-11-28T04:21:50.289Z,99.99
2018-11-28T04:23:02.623Z,99.95
2018-11-28T04:24:12.777Z,99.99
2018-11-28T04:25:22.926Z,99.99
2018-11-28T04:26:33.050Z,99.99
2018-11-28T04:27:42.928Z,99.99
2018-11-28T04:28:52.540Z,99.66
2018-11-28T04:30:05.888Z,99.99
2018-11-28T04:31:16.019Z,99.66
2018-11-28T04:32:26.153Z,99.76
2018-11-28T04:33:36.413Z,99.48
2018-11-28T04:34:46.564Z,99.48
2018-11-28T04:35:56.710Z,99.66
2018-11-28T04:37:06.846Z,99.66
2018-11-28T04:38:17.233Z,99.48
2018-11-28T04:39:27.528Z,99.48
2018-11-28T04:40:37.685Z,99.48
2018-11-28T04:41:47.503Z,99.66
2018-11-28T04:42:57.376Z,99.66
2018-11-28T04:44:07.519Z,99.48
2018-11-28T04:45:17.693Z,99.48
2018-11-28T04:46:27.820Z,99.95
2018-11-28T04:47:37.965Z,99.48
2018-11-28T04:48:48.274Z,99.48
2018-11-28T04:49:58.143Z,99.48
2018-11-28T04:51:08.716Z,99.57
2018-11-28T04:52:18.836Z,99.48
2018-11-28T04:53:28.967Z,99.48
2018-11-28T04:54:39.100Z,99.48
2018-11-28T04:55:49.219Z,99.48
2018-11-28T04:56:59.399Z,99.48
2018-11-28T04:58:09.536Z,99.48
2018-11-28T04:59:19.653Z,99.48
2018-11-28T05:00:29.718Z,99.95
2018-11-28T05:01:39.580Z,99.99
2018-11-28T05:02:49.757Z,99.95
2018-11-28T05:03:59.920Z,99.99
2018-11-28T05:05:10.050Z,99.38
2018-11-28T05:06:19.931Z,99.57
2018-11-28T05:07:29.807Z,99.48
2018-11-28T05:08:39.463Z,99.66
2018-11-28T05:09:49.835Z,99.48
2018-11-28T05:11:00.299Z,99.66
2018-11-28T05:12:10.160Z,99.48
2018-11-28T05:13:20.338Z,99.38
2018-11-28T05:14:30.325Z,99.48
2018-11-28T05:15:40.212Z,99.48
2018-11-28T05:16:50.336Z,99.99
2018-11-28T05:18:00.456Z,99.76
2018-11-28T05:19:10.577Z,99.85
2018-11-28T05:20:20.443Z,99.95
2018-11-28T05:21:30.589Z,99.85
2018-11-28T05:22:40.700Z,99.99
2018-11-28T05:23:50.860Z,99.95
2018-11-28T05:25:01.343Z,99.66
2018-11-28T05:26:11.466Z,99.57
2018-11-28T05:27:21.337Z,99.66
2018-11-28T05:28:31.471Z,99.66
2018-11-28T05:29:41.625Z,99.57
2018-11-28T05:30:51.752Z,99.48
2018-11-28T05:32:01.940Z,99.48
2018-11-28T05:33:12.061Z,99.48
2018-11-28T05:34:22.182Z,99.48
2018-11-28T05:35:32.328Z,99.48
2018-11-28T05:36:42.482Z,99.66
2018-11-28T05:37:52.642Z,99.48
2018-11-28T05:39:03.196Z,99.66
2018-11-28T05:40:13.358Z,99.48
2018-11-28T05:41:23.272Z,99.66
2018-11-28T05:42:33.119Z,99.66
2018-11-28T05:43:43.233Z,99.66
2018-11-28T05:44:53.372Z,99.66
2018-11-28T05:46:03.524Z,99.57
2018-11-28T05:47:13.651Z,99.66
2018-11-28T05:48:23.779Z,99.76
2018-11-28T05:49:33.976Z,99.76
2018-11-28T05:50:44.108Z,99.66
2018-11-28T05:51:53.988Z,99.76
2018-11-28T05:53:04.109Z,99.76
2018-11-28T05:54:14.230Z,99.76
2018-11-28T05:55:25.724Z,99.76
2018-11-28T05:56:35.841Z,99.57
2018-11-28T05:57:46.469Z,99.66
2018-11-28T05:58:56.587Z,99.66
2018-11-28T06:00:07.336Z,99.66
2018-11-28T06:01:17.228Z,99.48
2018-11-28T06:02:27.357Z,99.38
2018-11-28T06:03:37.580Z,99.38
2018-11-28T06:04:47.457Z,99.66
2018-11-28T06:05:57.859Z,99.66
2018-11-28T06:07:10.477Z,99.48
2018-11-28T06:08:20.612Z,99.66
2018-11-28T06:09:31.015Z,99.66
2018-11-28T06:10:41.162Z,99.57
2018-11-28T06:11:51.305Z,99.57
2018-11-28T06:13:01.449Z,99.66
2018-11-28T06:14:11.589Z,99.76
2018-11-28T06:15:21.557Z,99.95
2018-11-28T06:16:31.646Z,99.85
2018-11-28T06:17:41.782Z,99.85
2018-11-28T06:18:51.979Z,99.85
2018-11-28T06:20:02.122Z,99.85
2018-11-28T06:21:12.510Z,99.85
2018-11-28T06:22:21.879Z,99.85
2018-11-28T06:23:31.757Z,99.76
2018-11-28T06:24:42.114Z,99.85
2018-11-28T06:25:52.247Z,99.95
2018-11-28T06:27:02.356Z,99.66
2018-11-28T06:28:12.155Z,99.85
2018-11-28T06:29:21.996Z,99.85
2018-11-28T06:30:31.856Z,99.99
2018-11-28T06:31:41.991Z,99.66
2018-11-28T06:32:53.288Z,99.66
2018-11-28T06:34:03.410Z,99.76
2018-11-28T06:35:13.323Z,99.57
2018-11-28T06:36:23.447Z,99.95
2018-11-28T06:37:33.566Z,99.76
2018-11-28T06:38:43.713Z,99.76
2018-11-28T06:39:53.853Z,99.85
2018-11-28T06:41:05.065Z,99.76
2018-11-28T06:42:14.952Z,99.95
2018-11-28T06:43:25.092Z,99.66
2018-11-28T06:44:35.012Z,99.48
2018-11-28T06:45:44.889Z,99.95
2018-11-28T06:46:55.003Z,99.95
2018-11-28T06:48:04.918Z,99.38
2018-11-28T06:49:15.143Z,99.38
2018-11-28T06:50:25.253Z,99.19
2018-11-28T06:51:35.125Z,99.19
2018-11-28T06:52:45.243Z,99.29
2018-11-28T06:53:55.379Z,99.29
2018-11-28T06:55:05.714Z,99.38
2018-11-28T06:56:15.850Z,99.1
2018-11-28T06:57:25.984Z,99.19
2018-11-28T06:58:36.124Z,99.01
2018-11-28T06:59:46.325Z,99.01
2018-11-28T07:00:56.197Z,99.1
2018-11-28T07:02:06.322Z,98.82
2018-11-28T07:03:16.459Z,99.1
2018-11-28T07:04:26.327Z,98.91
2018-11-28T07:05:36.504Z,98.68
2018-11-28T07:06:46.358Z,98.68
2018-11-28T07:07:56.524Z,98.77
2018-11-28T07:09:06.662Z,98.86
2018-11-28T07:10:17.020Z,98.49
2018-11-28T07:11:26.888Z,98.86
2018-11-28T07:12:37.050Z,98.77
2018-11-28T07:13:46.840Z,98.86
2018-11-28T07:14:56.963Z,98.68
2018-11-28T07:16:08.333Z,98.49
2018-11-28T07:17:18.482Z,98.77
2018-11-28T07:18:28.634Z,98.86
2018-11-28T07:19:38.766Z,98.2
2018-11-28T07:20:48.893Z,98.49
2018-11-28T07:21:59.076Z,98.96
2018-11-28T07:23:09.208Z,98.63
2018-11-28T07:24:19.339Z,98.72
2018-11-28T07:25:29.501Z,98.35
2018-11-28T07:26:39.653Z,98.16
2018-11-28T07:27:49.510Z,98.16
2018-11-28T07:28:59.378Z,98.44
2018-11-28T07:30:10.847Z,98.82
2018-11-28T07:31:20.996Z,98.82
2018-11-28T07:32:31.193Z,98.82
2018-11-28T07:33:41.042Z,98.72
2018-11-28T07:34:51.168Z,98.54
2018-11-28T07:36:01.021Z,98.54
2018-11-28T07:37:10.885Z,98.91
2018-11-28T07:38:20.751Z,99.01
2018-11-28T07:39:30.587Z,98.91
2018-11-28T07:40:40.763Z,98.91
2018-11-28T07:41:50.342Z,98.72
2018-11-28T07:43:00.545Z,99.01
2018-11-28T07:44:10.734Z,98.35
2018-11-28T07:45:20.581Z,98.25
2018-11-28T07:46:30.451Z,98.35
2018-11-28T07:47:40.575Z,98.06
2018-11-28T07:48:50.441Z,98.35
2018-11-28T07:50:03.032Z,98.25
2018-11-28T07:51:13.215Z,98.35
2018-11-28T07:52:23.350Z,98.54
2018-11-28T07:53:33.250Z,98.16
2018-11-28T07:54:43.576Z,98.49
2018-11-28T07:55:53.710Z,98.87
2018-11-28T07:57:03.545Z,98.49
2018-11-28T07:58:13.409Z,98.68
2018-11-28T07:59:23.284Z,98.58
2018-11-28T08:00:33.403Z,98.58
2018-11-28T08:01:43.517Z,98.58
2018-11-28T08:02:53.657Z,98.49
2018-11-28T08:04:03.795Z,98.49
2018-11-28T08:05:13.610Z,98.49
2018-11-28T08:06:23.723Z,98.49
2018-11-28T08:07:34.003Z,98.21
2018-11-28T08:08:44.074Z,98.39
2018-11-28T08:09:54.205Z,98.3
2018-11-28T08:11:06.234Z,98.58
2018-11-28T08:12:16.366Z,98.21
2018-11-28T08:13:26.496Z,98.21
2018-11-28T08:14:36.619Z,98.49
2018-11-28T08:15:46.742Z,98.11
2018-11-28T08:16:56.971Z,98.68
2018-11-28T08:18:08.449Z,98.96
2018-11-28T08:19:23.857Z,98.68
2018-11-28T08:20:34.147Z,98.87
2018-11-28T08:21:44.012Z,98.77
2018-11-28T08:22:54.199Z,98.87
2018-11-28T08:24:05.267Z,98.49
2018-11-28T08:25:15.472Z,98.21
2018-11-28T08:26:30.941Z,98.3
2018-11-28T08:27:41.327Z,98.39
2018-11-28T08:28:51.837Z,98.39
2018-11-28T08:30:01.686Z,98.49
2018-11-28T08:31:12.360Z,98.11
2018-11-28T08:32:22.496Z,97.97
2018-11-28T08:33:32.364Z,97.78
2018-11-28T08:34:42.522Z,97.69
2018-11-28T08:35:52.650Z,97.4
2018-11-28T08:37:02.923Z,97.4
2018-11-28T08:38:13.080Z,97.59
2018-11-28T08:39:23.233Z,97.88
2018-11-28T08:40:33.055Z,97.78
2018-11-28T08:41:43.194Z,97.97
2018-11-28T08:42:53.429Z,98.35
2018-11-28T08:44:03.841Z,98.63
2018-11-28T08:45:14.235Z,98.25
2018-11-28T08:46:24.695Z,98.44
2018-11-28T08:47:35.091Z,98.54
2018-11-28T08:48:44.877Z,98.92
2018-11-28T08:49:54.998Z,98.44
2018-11-28T08:51:06.748Z,98.25
2018-11-28T08:52:16.669Z,98.44
2018-11-28T08:53:26.865Z,98.35
2018-11-28T08:54:36.819Z,98.35
2018-11-28T08:55:47.141Z,98.63
2018-11-28T08:56:57.260Z,98.35
2018-11-28T08:58:08.671Z,97.21
2018-11-28T08:59:18.860Z,96.22
2018-11-28T09:00:28.799Z,96.26
2018-11-28T09:01:38.701Z,96.36
2018-11-28T09:02:48.835Z,96.17
2018-11-28T09:03:58.753Z,95.89
2018-11-28T09:05:08.902Z,95.55
2018-11-28T09:06:19.076Z,95.79
2018-11-28T09:07:29.224Z,95.03
2018-11-28T09:08:39.085Z,94.74
2018-11-28T09:09:49.791Z,95.17
2018-11-28T09:10:59.501Z,94.32
2018-11-28T09:12:09.630Z,93.89
2018-11-28T09:13:19.841Z,94.08
2018-11-28T09:14:30.299Z,94.22
2018-11-28T09:15:40.544Z,93.94
2018-11-28T09:16:50.687Z,94.74
2018-11-28T09:18:01.436Z,95.6
2018-11-28T09:19:11.609Z,96.22
2018-11-28T09:20:21.743Z,96.03
2018-11-28T09:21:31.865Z,95.03
2018-11-28T09:22:42.001Z,95.41
2018-11-28T09:23:52.197Z,95.7
2018-11-28T09:25:02.813Z,96.89
2018-11-28T09:26:12.966Z,97.88
2018-11-28T09:27:23.088Z,97.83
2018-11-28T09:28:33.220Z,98.97
2018-11-28T09:29:43.582Z,98.73
2018-11-28T09:30:53.697Z,99.21
2018-11-28T09:32:05.315Z,99.02
2018-11-28T09:33:15.686Z,98.73
2018-11-28T09:34:25.882Z,98.73
2018-11-28T09:35:36.004Z,98.73
2018-11-28T09:36:46.118Z,98.92
2018-11-28T09:37:56.227Z,99.11
2018-11-28T09:39:06.096Z,98.54
2018-11-28T09:40:15.968Z,98.54
2018-11-28T09:41:26.135Z,98.64
2018-11-28T09:42:36.278Z,98.64
2018-11-28T09:43:46.397Z,98.83
2018-11-28T09:44:56.814Z,98.64
2018-11-28T09:46:06.980Z,99.02
2018-11-28T09:47:17.356Z,97.97
2018-11-28T09:48:27.473Z,98.35
2018-11-28T09:49:37.360Z,98.26
2018-11-28T09:50:47.491Z,98.64
2018-11-28T09:51:57.615Z,97.88
2018-11-28T09:53:07.487Z,98.16
2018-11-28T09:54:17.604Z,97.97
2018-11-28T09:55:27.790Z,97.97
2018-11-28T09:56:37.969Z,98.16
2018-11-28T09:57:48.109Z,97.88
2018-11-28T09:58:57.976Z,98.07
2018-11-28T10:00:08.189Z,98.16
2018-11-28T10:01:18.368Z,97.69
2018-11-28T10:02:28.243Z,97.78
2018-11-28T10:03:38.181Z,98.07
2018-11-28T10:04:48.060Z,97.97
2018-11-28T10:05:58.200Z,97.97
2018-11-28T10:07:08.557Z,97.5
2018-11-28T10:08:18.539Z,97.5
2018-11-28T10:09:28.519Z,97.69
2018-11-28T10:10:38.903Z,97.69
2018-11-28T10:11:48.765Z,97.92
2018-11-28T10:12:58.950Z,97.55
2018-11-28T10:14:09.082Z,97.83
2018-11-28T10:15:18.940Z,97.74
2018-11-28T10:16:29.060Z,97.92
2018-11-28T10:17:38.984Z,97.83
2018-11-28T10:18:49.457Z,98.02
2018-11-28T10:19:59.598Z,97.74
2018-11-28T10:21:09.714Z,97.74
2018-11-28T10:22:20.094Z,97.92
2018-11-28T10:23:30.213Z,98.02
2018-11-28T10:24:40.341Z,97.83
2018-11-28T10:25:50.569Z,98.12
2018-11-28T10:27:00.695Z,98.31
2018-11-28T10:28:10.827Z,97.83
2018-11-28T10:29:21.184Z,98.02
2018-11-28T10:30:31.572Z,97.83
2018-11-28T10:31:41.756Z,98.02
2018-11-28T10:32:51.902Z,98.12
2018-11-28T10:34:02.054Z,98.12
2018-11-28T10:35:12.188Z,97.92
2018-11-28T10:36:22.076Z,97.97
2018-11-28T10:37:31.436Z,98.17
2018-11-28T10:38:41.563Z,98.45
2018-11-28T10:39:51.751Z,98.17
2018-11-28T10:41:01.879Z,98.36
2018-11-28T10:42:12.258Z,97.97
2018-11-28T10:43:22.386Z,97.97
2018-11-28T10:44:32.533Z,98.26
2018-11-28T10:45:42.768Z,98.26
2018-11-28T10:46:52.626Z,98.26
2018-11-28T10:48:05.769Z,98.17
2018-11-28T10:49:16.147Z,98.17
2018-11-28T10:50:26.271Z,98.17
2018-11-28T10:51:36.390Z,98.17
2018-11-28T10:52:46.531Z,97.97
2018-11-28T10:53:56.708Z,97.97
2018-11-28T10:55:06.844Z,98.22
2018-11-28T10:56:17.004Z,98.22
2018-11-28T10:57:27.205Z,98.03
2018-11-28T10:58:37.082Z,98.03
2018-11-28T10:59:46.942Z,98.6
2018-11-28T11:00:57.070Z,98.31
2018-11-28T11:02:06.935Z,98.41
2018-11-28T11:03:17.091Z,98.31
2018-11-28T11:04:27.336Z,98.6
2018-11-28T11:05:37.789Z,98.6
2018-11-28T11:06:47.999Z,98.22
2018-11-28T11:07:58.173Z,98.5
2018-11-28T11:09:08.119Z,98.22
2018-11-28T11:10:18.263Z,98.41
2018-11-28T11:11:28.391Z,98.22
2018-11-28T11:12:38.520Z,98.79
2018-11-28T11:13:48.385Z,98.69
2018-11-28T11:14:58.297Z,98.31
2018-11-28T11:16:08.212Z,98.41
2018-11-28T11:17:18.396Z,98.41
2018-11-28T11:18:28.100Z,98.5
2018-11-28T11:19:38.361Z,98.69
2018-11-28T11:20:48.519Z,98.46
2018-11-28T11:21:58.662Z,98.36
2018-11-28T11:23:08.597Z,98.46
2018-11-28T11:24:18.782Z,98.65
2018-11-28T11:25:28.673Z,98.65
2018-11-28T11:26:38.869Z,98.17
2018-11-28T11:27:49.020Z,98.22
2018-11-28T11:28:59.059Z,99.02
2018-11-28T11:30:10.643Z,98.74
2018-11-28T11:31:20.796Z,99.12
2018-11-28T11:32:31.239Z,98.83
2018-11-28T11:33:41.402Z,98.93
2018-11-28T11:34:51.547Z,98.93
2018-11-28T11:36:01.919Z,98.93
2018-11-28T11:37:12.078Z,98.83
2018-11-28T11:38:22.298Z,98.93
2018-11-28T11:39:32.248Z,98.74
2018-11-28T11:40:42.105Z,99.12
2018-11-28T11:41:52.236Z,99.02
2018-11-28T11:43:02.486Z,98.83
2018-11-28T11:44:12.622Z,98.74
2018-11-28T11:45:22.782Z,98.74
2018-11-28T11:46:33.279Z,98.93
2018-11-28T11:47:43.416Z,98.93
2018-11-28T11:48:53.547Z,98.55
2018-11-28T11:50:05.965Z,98.65
2018-11-28T11:51:17.289Z,98.65
2018-11-28T11:52:27.624Z,98.83
2018-11-28T11:53:37.808Z,98.83
2018-11-28T11:54:47.956Z,98.65
2018-11-28T11:55:58.115Z,98.74
2018-11-28T11:57:08.281Z,98.74
2018-11-28T11:58:18.413Z,98.74
2018-11-28T11:59:28.605Z,98.65
2018-11-28T12:00:38.747Z,98.83
2018-11-28T12:01:54.524Z,98.65
2018-11-28T12:03:04.603Z,98.83
2018-11-28T12:04:14.465Z,98.46
2018-11-28T12:05:24.318Z,98.65
2018-11-28T12:06:34.173Z,98.65
2018-11-28T12:07:44.307Z,98.36
2018-11-28T12:08:54.133Z,97.31
2018-11-28T12:10:11.257Z,95.98
2018-11-28T12:11:21.140Z,94.27
2018-11-28T12:12:31.270Z,93.17
2018-11-28T12:13:41.397Z,92.12
2018-11-28T12:14:51.046Z,91.21
2018-11-28T12:16:02.551Z,91.11
2018-11-28T12:17:12.713Z,92.25
2018-11-28T12:18:22.650Z,93.88
2018-11-28T12:19:32.790Z,95.22
2018-11-28T12:20:42.943Z,97.08
2018-11-28T12:21:52.664Z,97.94
2018-11-28T12:23:03.885Z,98.22
2018-11-28T12:24:14.067Z,97.27
2018-11-28T12:25:24.206Z,95.89
2018-11-28T12:26:34.341Z,94.74
2018-11-28T12:27:44.515Z,94.22
2018-11-28T12:28:54.701Z,93.98
2018-11-28T12:30:04.854Z,93.5
2018-11-28T12:31:14.989Z,93.26
2018-11-28T12:32:25.182Z,93.55
2018-11-28T12:33:35.524Z,95.03
2018-11-28T12:34:50.374Z,96.61
2018-11-28T12:36:00.700Z,97.66
2018-11-28T12:37:10.825Z,98.46
2018-11-28T12:38:20.902Z,97.89
2018-11-28T12:39:30.762Z,96.32
2018-11-28T12:40:41.057Z,95.56
2018-11-28T12:41:50.921Z,93.98
2018-11-28T12:43:01.313Z,92.97
2018-11-28T12:44:11.465Z,92.16
2018-11-28T12:45:21.614Z,93.07
2018-11-28T12:46:31.748Z,94.51
2018-11-28T12:47:42.015Z,95.79
2018-11-28T12:48:52.143Z,97.89
2018-11-28T12:50:02.279Z,98.9
2018-11-28T12:51:12.403Z,99.41
2018-11-28T12:52:22.585Z,99.27
2018-11-28T12:53:32.704Z,99.99
2018-11-28T12:54:42.574Z,99.99
2018-11-28T12:55:52.720Z,99.99
2018-11-28T12:57:02.851Z,99.99
2018-11-28T12:58:13.047Z,99.99
2018-11-28T12:59:23.184Z,99.99
2018-11-28T13:00:33.410Z,99.99
2018-11-28T13:01:43.293Z,99.65
2018-11-28T13:02:53.429Z,99.46
2018-11-28T13:04:03.289Z,99.31
2018-11-28T13:05:13.143Z,99.5
2018-11-28T13:06:23.022Z,99.6
2018-11-28T13:07:33.165Z,99.31
2018-11-28T13:08:42.993Z,99.31
2018-11-28T13:09:53.215Z,99.41
2018-11-28T13:11:05.844Z,99.22
2018-11-28T13:12:16.065Z,99.31
2018-11-28T13:13:26.181Z,99.31
2018-11-28T13:14:36.318Z,99.6
2018-11-28T13:15:46.437Z,99.41
2018-11-28T13:16:56.563Z,99.55
2018-11-28T13:18:07.169Z,99.55
2018-11-28T13:19:17.058Z,99.74
2018-11-28T13:20:27.183Z,99.99
2018-11-28T13:21:37.312Z,99.99
2018-11-28T13:22:47.440Z,99.74
2018-11-28T13:23:57.618Z,99.74
2018-11-28T13:25:07.700Z,99.45
2018-11-28T13:26:17.572Z,99.64
2018-11-28T13:27:27.413Z,99.55
2018-11-28T13:28:37.554Z,99.74
2018-11-28T13:29:47.697Z,99.07
2018-11-28T13:30:57.826Z,99.16
2018-11-28T13:32:11.506Z,99.64
2018-11-28T13:33:21.373Z,99.64
2018-11-28T13:34:31.240Z,99.99
2018-11-28T13:35:41.373Z,99.99
2018-11-28T13:36:51.501Z,99.99
2018-11-28T13:38:01.618Z,99.99
2018-11-28T13:39:11.885Z,99.99
2018-11-28T13:40:22.017Z,99.99
2018-11-28T13:41:32.146Z,99.99
2018-11-28T13:42:42.026Z,99.99
2018-11-28T13:43:52.177Z,99.88
2018-11-28T13:45:02.335Z,99.69
2018-11-28T13:46:12.529Z,99.78
2018-11-28T13:47:22.552Z,99.3
2018-11-28T13:48:32.671Z,99.3
2018-11-28T13:49:42.562Z,99.69
2018-11-28T13:50:52.764Z,98.83
2018-11-28T13:52:02.884Z,99.02
2018-11-28T13:53:12.767Z,99.21
2018-11-28T13:54:22.833Z,99.59
2018-11-28T13:55:42.085Z,99.5
2018-11-28T13:58:06.633Z,99.21
2018-11-28T13:59:16.769Z,99.3
2018-11-28T14:00:26.970Z,99.69
2018-11-28T14:01:36.285Z,99.21
2018-11-28T14:02:46.403Z,99.78
2018-11-28T14:03:56.525Z,99.5
2018-11-28T14:05:06.748Z,99.69
2018-11-28T14:06:16.883Z,99.5
2018-11-28T14:07:26.753Z,99.5
2018-11-28T14:08:36.918Z,99.69
2018-11-28T14:09:46.771Z,99.69
2018-11-28T14:10:56.893Z,99.99
2018-11-28T14:12:08.505Z,99.99
2018-11-28T14:13:18.621Z,99.99
2018-11-28T14:14:28.808Z,99.99
2018-11-28T14:15:38.670Z,99.99
2018-11-28T14:16:48.522Z,99.99
2018-11-28T14:17:58.635Z,99.99
2018-11-28T14:19:08.826Z,99.99
2018-11-28T14:20:19.804Z,99.99
2018-11-28T14:21:29.929Z,99.73
2018-11-28T14:22:40.044Z,99.99
2018-11-28T14:23:50.161Z,99.99
2018-11-28T14:25:00.398Z,99.99
2018-11-28T14:26:10.524Z,99.99
2018-11-28T14:27:20.645Z,99.99
2018-11-28T14:28:30.650Z,99.99
2018-11-28T14:29:40.803Z,99.99
2018-11-28T14:30:50.685Z,99.99
2018-11-28T14:32:03.155Z,99.99
2018-11-28T14:33:13.298Z,99.99
2018-11-28T14:34:23.227Z,99.99
2018-11-28T14:35:33.060Z,99.99
2018-11-28T14:36:43.198Z,99.99
2018-11-28T14:37:53.392Z,99.99
2018-11-28T14:39:05.670Z,99.99
2018-11-28T14:40:15.914Z,99.99
2018-11-28T14:41:26.127Z,99.99
2018-11-28T14:42:36.306Z,99.99
2018-11-28T14:43:46.196Z,99.99
2018-11-28T14:44:56.084Z,99.99
2018-11-28T14:46:05.954Z,99.99
2018-11-28T14:47:16.061Z,99.99
2018-11-28T14:48:26.181Z,99.99
2018-11-28T14:49:36.315Z,99.99
2018-11-28T14:50:46.502Z,99.99
2018-11-28T14:51:56.242Z,99.99
2018-11-28T14:53:06.395Z,99.99
2018-11-28T14:54:16.187Z,99.99
2018-11-28T14:55:26.335Z,99.99
2018-11-28T14:56:36.517Z,99.99
2018-11-28T14:57:46.635Z,99.99
2018-11-28T14:58:56.770Z,99.99
2018-11-28T15:00:06.885Z,99.99
2018-11-28T15:01:17.016Z,99.99
2018-11-28T15:02:27.148Z,99.99
2018-11-28T15:03:37.039Z,99.99
2018-11-28T15:04:47.161Z,99.99
2018-11-28T15:05:57.304Z,99.99
2018-11-28T15:07:07.189Z,99.99
2018-11-28T15:08:17.417Z,99.99
2018-11-28T15:09:27.337Z,99.99
2018-11-28T15:10:37.551Z,99.99
2018-11-28T15:11:47.533Z,99.99
2018-11-28T15:12:57.150Z,99.99
2018-11-28T15:14:07.285Z,99.99
2018-11-28T15:15:17.418Z,99.99
2018-11-28T15:16:27.307Z,99.99
2018-11-28T15:17:37.461Z,99.99
2018-11-28T15:18:47.572Z,99.99
2018-11-28T15:19:57.479Z,99.99
2018-11-28T15:21:07.657Z,99.99
2018-11-28T15:22:17.239Z,99.99
2018-11-28T15:23:27.394Z,99.99
2018-11-28T15:24:37.276Z,99.99
2018-11-28T15:25:47.393Z,99.99
2018-11-28T15:26:57.614Z,99.99
2018-11-28T15:28:07.491Z,99.99
2018-11-28T15:29:17.641Z,99.99
2018-11-28T15:30:27.782Z,99.99
2018-11-28T15:31:37.918Z,99.99
2018-11-28T15:32:48.032Z,99.99
2018-11-28T15:33:58.150Z,99.99
2018-11-28T15:35:08.311Z,99.99
2018-11-28T15:36:18.193Z,99.99
2018-11-28T15:37:28.311Z,99.99